Schneifelwetter: Wetterstation Hallschlag, 537 m . NN
Wetterdaten: Freitag, 12.08.2011
Datum Zeit Temp. A. Feuchte A. Luftdruck Regen Wind Richtung Richtung Sonnenschein T Regen Taupunkt Windchill
12.08.2011 00:00 14,0 C 67 % 1012 hPa 0,0 l/m 14,8 km/h (3 Bft) W-SW45 240 0 min 0 min 8,0 C 10,1 C
12.08.2011 00:15 13,5 C 69 % 1012 hPa 0,0 l/m 14,8 km/h (3 Bft) W-SW22.5 240 0 min 0 min 7,9 C 9,4 C
12.08.2011 00:30 13,0 C 71 % 1012 hPa 0,0 l/m 15,0 km/h (3 Bft) W-SW22.5 245 0 min 0 min 7,9 C 8,8 C
12.08.2011 00:45 12,7 C 71 % 1012 hPa 0,0 l/m 13,1 km/h (3 Bft) W-SW22.5 245 0 min 0 min 7,6 C 9,2 C
12.08.2011 01:00 12,3 C 72 % 1012 hPa 0,0 l/m 0,0 km/h (0 Bft) W-SW 245 0 min 0 min 7,4 C 12,3 C
12.08.2011 01:15 12,0 C 74 % 1012 hPa 0,0 l/m 8,4 km/h (2 Bft) W-SW 245 0 min 0 min 7,5 C 10,7 C
12.08.2011 01:30 11,9 C 75 % 1012 hPa 0,0 l/m 8,3 km/h (2 Bft) W-SW 245 0 min 0 min 7,6 C 10,7 C
12.08.2011 01:45 11,8 C 77 % 1012 hPa 0,0 l/m 7,0 km/h (2 Bft) W-SW 245 0 min 0 min 7,9 C 11,4 C
12.08.2011 02:00 12,4 C 82 % 1012 hPa 0,0 l/m 14,5 km/h (3 Bft) SW22.5 220 0 min 0 min 9,4 C 8,2 C
12.08.2011 02:15 12,8 C 84 % 1011 hPa 0,0 l/m 15,0 km/h (3 Bft) SW45 220 0 min 0 min 10,2 C 8,5 C
12.08.2011 02:30 12,9 C 85 % 1012 hPa 0,0 l/m 14,8 km/h (3 Bft) SW45 215 0 min 0 min 10,4 C 8,7 C
12.08.2011 02:45 13,0 C 86 % 1011 hPa 0,0 l/m 20,2 km/h (4 Bft) W-SW67.5 240 0 min 0 min 10,7 C 7,1 C
12.08.2011 03:00 13,0 C 88 % 1011 hPa 0,0 l/m 32,7 km/h (5 Bft) W-SW45 245 0 min 0 min 11,1 C 4,4 C
12.08.2011 03:15 13,1 C 90 % 1011 hPa 0,0 l/m 18,7 km/h (3 Bft) W-SW45 250 0 min 0 min 11,5 C 7,7 C
12.08.2011 03:30 13,1 C 91 % 1011 hPa 0,0 l/m 15,5 km/h (3 Bft) SW45 235 0 min 0 min 11,7 C 8,7 C
12.08.2011 03:45 13,2 C 91 % 1011 hPa 0,0 l/m 17,6 km/h (3 Bft) SW45 235 0 min 0 min 11,8 C 8,1 C
12.08.2011 04:00 13,2 C 91 % 1011 hPa 0,0 l/m 17,5 km/h (3 Bft) W-SW45 240 0 min 0 min 11,8 C 8,2 C
12.08.2011 04:15 13,1 C 91 % 1011 hPa 0,0 l/m 15,8 km/h (3 Bft) SW45 215 0 min 0 min 11,7 C 8,6 C
12.08.2011 04:30 13,1 C 92 % 1011 hPa 0,0 l/m 18,9 km/h (3 Bft) W-SW22.5 250 0 min 0 min 11,8 C 7,6 C
12.08.2011 04:45 13,2 C 92 % 1011 hPa 0,0 l/m 18,3 km/h (3 Bft) SW45 230 0 min 0 min 11,9 C 7,9 C
12.08.2011 05:00 13,2 C 92 % 1010 hPa 0,3 l/m 21,3 km/h (4 Bft) W-SW45 245 0 min 15 min 11,9 C 7,1 C
12.08.2011 05:15 13,2 C 92 % 1010 hPa 0,0 l/m 15,7 km/h (3 Bft) W-SW67.5 240 0 min 0 min 11,9 C 8,8 C
12.08.2011 05:30 13,2 C 92 % 1010 hPa 0,0 l/m 24,3 km/h (4 Bft) W-SW22.5 255 0 min 0 min 11,9 C 6,3 C
12.08.2011 05:45 13,2 C 92 % 1010 hPa 0,0 l/m 19,4 km/h (3 Bft) W-SW22.5 240 0 min 0 min 11,9 C 7,6 C
12.08.2011 06:00 13,2 C 93 % 1010 hPa 0,0 l/m 19,7 km/h (3 Bft) W-SW22.5 250 0 min 0 min 12,1 C 7,5 C
12.08.2011 06:15 13,2 C 93 % 1010 hPa 0,0 l/m 21,1 km/h (4 Bft) W22.5 260 0 min 0 min 12,1 C 7,1 C
12.08.2011 06:30 13,2 C 93 % 1010 hPa 0,3 l/m 14,0 km/h (3 Bft) W-SW45 240 0 min 15 min 12,1 C 9,4 C
12.08.2011 06:45 13,3 C 94 % 1010 hPa 0,3 l/m 15,5 km/h (3 Bft) W22.5 260 0 min 15 min 12,4 C 9,0 C
12.08.2011 07:00 13,4 C 94 % 1010 hPa 0,0 l/m 16,3 km/h (3 Bft) W-SW45 250 0 min 0 min 12,5 C 8,8 C
12.08.2011 07:15 13,5 C 94 % 1011 hPa 0,0 l/m 13,5 km/h (3 Bft) W-SW22.5 255 0 min 0 min 12,6 C 9,9 C
12.08.2011 07:30 13,6 C 94 % 1011 hPa 0,0 l/m 9,6 km/h (2 Bft) W-SW22.5 250 0 min 0 min 12,7 C 11,8 C
12.08.2011 07:45 13,6 C 94 % 1011 hPa 0,0 l/m 11,9 km/h (2 Bft) W-SW22.5 255 0 min 0 min 12,7 C 10,7 C
12.08.2011 08:00 13,8 C 94 % 1011 hPa 0,0 l/m 13,6 km/h (3 Bft) W22.5 260 0 min 0 min 12,9 C 10,2 C
12.08.2011 08:15 14,0 C 94 % 1011 hPa 0,0 l/m 12,4 km/h (3 Bft) W-SW45 255 0 min 0 min 13,0 C 11,0 C
12.08.2011 08:30 14,4 C 94 % 1011 hPa 0,0 l/m 16,5 km/h (3 Bft) W-SW22.5 245 0 min 0 min 13,4 C 10,0 C
12.08.2011 08:45 14,4 C 94 % 1011 hPa 0,0 l/m 13,5 km/h (3 Bft) W-SW 245 0 min 0 min 13,4 C 11,0 C
12.08.2011 09:00 14,5 C 93 % 1011 hPa 0,0 l/m 16,2 km/h (3 Bft) SW45 215 0 min 0 min 13,4 C 10,2 C
12.08.2011 09:15 14,6 C 93 % 1011 hPa 0,0 l/m 18,0 km/h (3 Bft) W45 260 0 min 0 min 13,5 C 9,8 C
12.08.2011 09:30 14,8 C 93 % 1011 hPa 0,0 l/m 14,1 km/h (3 Bft) W-SW22.5 240 0 min 0 min 13,7 C 11,3 C
12.08.2011 09:45 15,0 C 93 % 1011 hPa 0,0 l/m 15,9 km/h (3 Bft) W-SW22.5 240 0 min 0 min 13,9 C 10,9 C
12.08.2011 10:00 15,0 C 93 % 1011 hPa 0,3 l/m 17,8 km/h (3 Bft) SW45 230 0 min 15 min 13,9 C 10,3 C
12.08.2011 10:15 15,0 C 93 % 1011 hPa 0,6 l/m 14,6 km/h (3 Bft) W-SW22.5 255 0 min 15 min 13,9 C 11,3 C
12.08.2011 10:30 15,0 C 93 % 1011 hPa 0,3 l/m 13,3 km/h (3 Bft) W-SW 250 0 min 15 min 13,9 C 11,8 C
12.08.2011 10:45 15,2 C 92 % 1011 hPa 0,3 l/m 12,6 km/h (3 Bft) W22.5 265 0 min 15 min 13,9 C 12,3 C
12.08.2011 11:00 15,7 C 93 % 1011 hPa 0,3 l/m 14,8 km/h (3 Bft) W-SW22.5 250 0 min 15 min 14,6 C 12,1 C
12.08.2011 11:15 16,5 C 91 % 1011 hPa 0,0 l/m 19,9 km/h (4 Bft) SW45 230 0 min 0 min 15,0 C 11,7 C
12.08.2011 11:30 16,4 C 90 % 1011 hPa 0,0 l/m 25,4 km/h (4 Bft) W22.5 260 0 min 0 min 14,8 C 10,4 C
12.08.2011 11:45 16,4 C 89 % 1011 hPa 0,0 l/m 19,3 km/h (3 Bft) W-SW45 255 0 min 0 min 14,6 C 11,7 C
12.08.2011 12:00 16,2 C 89 % 1011 hPa 0,0 l/m 26,9 km/h (4 Bft) W45 260 0 min 0 min 14,4 C 9,9 C
12.08.2011 12:15 16,7 C 88 % 1011 hPa 0,0 l/m 20,0 km/h (4 Bft) W45 260 0 min 0 min 14,7 C 11,9 C
12.08.2011 12:30 16,9 C 87 % 1011 hPa 0,0 l/m 24,0 km/h (4 Bft) W22.5 260 0 min 0 min 14,7 C 11,4 C
12.08.2011 12:45 17,2 C 87 % 1011 hPa 0,0 l/m 18,0 km/h (3 Bft) W-SW45 255 0 min 0 min 15,0 C 13,1 C
12.08.2011 13:00 17,0 C 86 % 1011 hPa 0,0 l/m 23,0 km/h (4 Bft) W45 265 0 min 0 min 14,6 C 11,7 C
12.08.2011 13:15 17,0 C 86 % 1011 hPa 0,0 l/m 17,5 km/h (3 Bft) W-SW45 255 0 min 0 min 14,6 C 12,9 C
12.08.2011 13:30 17,2 C 86 % 1011 hPa 0,0 l/m 22,3 km/h (4 Bft) W-SW45 245 0 min 0 min 14,8 C 12,1 C
12.08.2011 13:45 17,4 C 86 % 1011 hPa 0,0 l/m 24,5 km/h (4 Bft) W-SW45 255 0 min 0 min 15,0 C 11,9 C
12.08.2011 14:00 18,0 C 86 % 1011 hPa 0,0 l/m 16,1 km/h (3 Bft) SW45 225 0 min 0 min 15,6 C 14,5 C
12.08.2011 14:15 18,6 C 83 % 1011 hPa 0,0 l/m 22,6 km/h (4 Bft) W-SW45 245 0 min 0 min 15,7 C 13,9 C
12.08.2011 14:30 18,8 C 81 % 1011 hPa 0,0 l/m 27,7 km/h (4 Bft) W45 270 15 min 0 min 15,5 C 13,3 C
12.08.2011 14:45 18,1 C 83 % 1011 hPa 0,0 l/m 20,0 km/h (4 Bft) W45 265 0 min 0 min 15,2 C 13,8 C
12.08.2011 15:00 18,4 C 81 % 1011 hPa 0,0 l/m 18,9 km/h (3 Bft) W22.5 260 0 min 0 min 15,1 C 14,4 C
12.08.2011 15:15 18,2 C 82 % 1011 hPa 0,0 l/m 21,3 km/h (4 Bft) W22.5 270 0 min 0 min 15,1 C 13,6 C
12.08.2011 15:30 17,5 C 83 % 1011 hPa 0,0 l/m 23,3 km/h (4 Bft) W22.5 260 0 min 0 min 14,6 C 12,3 C
12.08.2011 15:45 16,3 C 86 % 1011 hPa 0,0 l/m 21,6 km/h (4 Bft) W22.5 270 0 min 0 min 14,0 C 11,1 C
12.08.2011 16:00 16,6 C 87 % 1011 hPa 0,0 l/m 15,3 km/h (3 Bft) W-SW22.5 255 0 min 0 min 14,4 C 13,0 C
12.08.2011 16:15 16,8 C 87 % 1011 hPa 0,0 l/m 20,8 km/h (4 Bft) W45 265 0 min 0 min 14,6 C 11,9 C
12.08.2011 16:31 17,5 C 87 % 1011 hPa 0,0 l/m 22,1 km/h (4 Bft) W45 265 0 min 0 min 15,3 C 12,5 C
12.08.2011 16:46 18,1 C 86 % 1011 hPa 0,0 l/m 19,6 km/h (3 Bft) W-SW22.5 255 15 min 0 min 15,7 C 13,8 C
12.08.2011 17:01 18,0 C 83 % 1011 hPa 0,0 l/m 28,9 km/h (5 Bft) W22.5 270 15 min 0 min 15,1 C 12,1 C
12.08.2011 17:16 18,1 C 82 % 1011 hPa 0,0 l/m 26,5 km/h (4 Bft) W22.5 260 0 min 0 min 15,0 C 12,6 C
12.08.2011 17:31 17,1 C 80 % 1011 hPa 0,0 l/m 27,4 km/h (4 Bft) W45 275 0 min 0 min 13,6 C 11,0 C
12.08.2011 17:46 16,5 C 81 % 1011 hPa 0,0 l/m 29,0 km/h (5 Bft) W22.5 275 0 min 0 min 13,2 C 10,0 C
12.08.2011 18:00 16,6 C 83 % 1011 hPa 0,0 l/m 18,8 km/h (3 Bft) W22.5 260 0 min 0 min 13,7 C 12,1 C
12.08.2011 18:15 16,8 C 82 % 1011 hPa 0,0 l/m 22,8 km/h (4 Bft) W22.5 265 0 min 0 min 13,7 C 11,5 C
12.08.2011 18:30 16,9 C 82 % 1011 hPa 0,0 l/m 20,9 km/h (4 Bft) W-SW45 250 0 min 0 min 13,8 C 12,0 C
12.08.2011 18:45 17,1 C 82 % 1011 hPa 0,0 l/m 23,0 km/h (4 Bft) W22.5 270 0 min 0 min 14,0 C 11,8 C
12.08.2011 19:00 17,1 C 82 % 1011 hPa 0,0 l/m 19,1 km/h (3 Bft) W-SW67.5 255 0 min 0 min 14,0 C 12,7 C
12.08.2011 19:15 17,1 C 82 % 1011 hPa 0,0 l/m 19,3 km/h (3 Bft) W22.5 260 0 min 0 min 14,0 C 12,6 C
12.08.2011 19:30 16,8 C 82 % 1011 hPa 0,0 l/m 11,9 km/h (2 Bft) W45 260 0 min 0 min 13,7 C 14,4 C
12.08.2011 19:45 16,4 C 83 % 1011 hPa 0,0 l/m 13,4 km/h (3 Bft) W-SW22.5 245 0 min 0 min 13,5 C 13,4 C
12.08.2011 20:00 16,0 C 84 % 1011 hPa 1,2 l/m 17,9 km/h (3 Bft) W-SW22.5 250 0 min 15 min 13,3 C 11,6 C
12.08.2011 20:15 15,8 C 85 % 1011 hPa 0,0 l/m 18,6 km/h (3 Bft) W-SW45 250 0 min 0 min 13,3 C 11,1 C
12.08.2011 20:30 15,5 C 85 % 1011 hPa 0,0 l/m 15,8 km/h (3 Bft) W-SW22.5 255 0 min 0 min 13,0 C 11,5 C
12.08.2011 20:45 15,2 C 86 % 1011 hPa 0,0 l/m 11,9 km/h (2 Bft) W-SW 250 0 min 0 min 12,9 C 12,5 C
12.08.2011 21:00 15,0 C 86 % 1011 hPa 0,0 l/m 11,4 km/h (2 Bft) W-SW 255 0 min 0 min 12,7 C 12,5 C
12.08.2011 21:15 14,7 C 87 % 1011 hPa 0,0 l/m 9,4 km/h (2 Bft) SW45 225 0 min 0 min 12,6 C 13,1 C
12.08.2011 21:30 14,4 C 88 % 1011 hPa 0,0 l/m 15,5 km/h (3 Bft) W-SW22.5 250 0 min 0 min 12,4 C 10,3 C
12.08.2011 21:45 14,4 C 89 % 1011 hPa 0,0 l/m 11,0 km/h (2 Bft) W-SW 250 0 min 0 min 12,6 C 12,0 C
12.08.2011 22:00 14,4 C 90 % 1011 hPa 0,0 l/m 13,3 km/h (3 Bft) SW45 235 0 min 0 min 12,8 C 11,1 C
12.08.2011 22:15 14,2 C 89 % 1011 hPa 0,0 l/m 12,9 km/h (3 Bft) SW45 225 0 min 0 min 12,4 C 11,0 C
12.08.2011 22:30 14,2 C 90 % 1011 hPa 0,0 l/m 7,2 km/h (2 Bft) W-SW 250 0 min 0 min 12,6 C 13,7 C
12.08.2011 22:45 14,1 C 90 % 1011 hPa 0,0 l/m 10,3 km/h (2 Bft) W-SW22.5 245 0 min 0 min 12,5 C 12,0 C
12.08.2011 23:00 13,7 C 90 % 1011 hPa 0,0 l/m 11,7 km/h (2 Bft) W-SW 240 0 min 0 min 12,1 C 10,9 C
12.08.2011 23:15 13,6 C 92 % 1011 hPa 0,0 l/m 14,0 km/h (3 Bft) SW67.5 220 0 min 0 min 12,3 C 9,9 C
12.08.2011 23:30 13,6 C 92 % 1011 hPa 0,0 l/m 13,9 km/h (3 Bft) W22.5 260 0 min 0 min 12,3 C 9,9 C
12.08.2011 23:45 13,6 C 92 % 1011 hPa 0,0 l/m 13,6 km/h (3 Bft) W-SW 245 0 min 0 min 12,3 C 10,0 C
_ Min-Zeit 01:45 00:00 05:00 - 01:00 - - - - 01:00 03:00
Minimum _ 11,8 C 67 % 1010 hPa - 0,0 km/h (0 Bft) - - - - 7,4 C 4,4 C
_ Max-Zeit 14:30 06:45 00:00 20:00 03:00 - - 14:30 05:00 16:46 14:00
Maximum _ 18,8 C 94 % 1012 hPa 1,2 l/m 32,7 km/h
W-SW (5 Bft)
- - 15 min 15 min 15,7 C 14,5 C
Durchschnitt _ 15,0 C 87 % 1011 hPa #3,9 l/m 17,3 km/h (3 Bft) W-SW - #45 min. #2:15 h 12,8 C 10,8 C